createdAt,value
2023-05-11T00:02:05.920Z,4.27
2023-05-11T00:04:35.257Z,4.00
2023-05-11T00:07:03.058Z,4.70
2023-05-11T00:09:30.791Z,4.47
2023-05-11T00:11:58.646Z,4.60
2023-05-11T00:14:26.851Z,4.60
2023-05-11T00:16:54.592Z,4.20
2023-05-11T00:19:22.375Z,4.37
2023-05-11T00:21:51.574Z,4.47
2023-05-11T00:24:19.342Z,5.00
2023-05-11T00:26:47.079Z,4.97
2023-05-11T00:29:14.933Z,4.60
2023-05-11T00:31:42.820Z,4.70
2023-05-11T00:34:10.638Z,4.53
2023-05-11T00:36:41.148Z,4.20
2023-05-11T00:39:11.962Z,4.20
2023-05-11T00:41:39.893Z,4.30
2023-05-11T00:44:08.446Z,4.43
2023-05-11T00:46:36.509Z,4.10
2023-05-11T00:49:04.590Z,4.70
2023-05-11T00:51:33.312Z,4.57
2023-05-11T00:54:02.334Z,4.90
2023-05-11T00:56:31.449Z,4.50
2023-05-11T00:58:59.309Z,4.17
2023-05-11T01:01:27.962Z,4.77
2023-05-11T01:03:55.910Z,4.80
2023-05-11T01:06:31.904Z,5.13
2023-05-11T01:09:06.632Z,4.70
2023-05-11T01:11:43.521Z,5.30
2023-05-11T01:14:18.223Z,5.17
2023-05-11T01:16:50.237Z,4.80
2023-05-11T01:19:25.119Z,5.53
2023-05-11T01:21:53.644Z,5.40
2023-05-11T01:24:44.613Z,5.90
2023-05-11T01:27:41.233Z,5.20
2023-05-11T01:30:29.989Z,5.33
2023-05-11T01:33:02.323Z,5.23
2023-05-11T01:35:33.012Z,5.77
2023-05-11T01:38:02.390Z,5.40
2023-05-11T01:40:35.682Z,5.50
2023-05-11T01:43:06.265Z,5.50
2023-05-11T01:45:40.253Z,5.37
2023-05-11T01:48:13.068Z,6.23
2023-05-11T01:50:42.322Z,5.83
2023-05-11T01:53:12.712Z,6.20
2023-05-11T01:55:42.931Z,5.63
2023-05-11T01:58:14.398Z,5.70
2023-05-11T02:00:45.648Z,6.17
2023-05-11T02:03:15.177Z,6.07
2023-05-11T02:05:45.185Z,5.77
2023-05-11T02:08:14.319Z,5.97
2023-05-11T02:10:42.975Z,5.83
2023-05-11T02:13:11.925Z,5.87
2023-05-11T02:15:42.721Z,5.97
2023-05-11T02:18:16.373Z,5.77
2023-05-11T02:20:46.202Z,6.73
2023-05-11T02:23:14.672Z,6.30
2023-05-11T02:25:43.990Z,6.47
2023-05-11T02:28:11.838Z,6.23
2023-05-11T02:30:46.913Z,6.53
2023-05-11T02:33:23.181Z,6.70
2023-05-11T02:35:52.564Z,6.90
2023-05-11T02:38:22.051Z,6.80
2023-05-11T02:40:52.701Z,6.83
2023-05-11T02:43:25.625Z,6.50
2023-05-11T02:45:59.294Z,7.00
2023-05-11T02:48:31.539Z,7.70
2023-05-11T02:51:02.214Z,6.37
2023-05-11T02:53:33.476Z,6.77
2023-05-11T02:56:02.127Z,6.47
2023-05-11T02:58:30.193Z,7.57
2023-05-11T03:00:58.800Z,6.77
2023-05-11T03:03:28.188Z,7.33
2023-05-11T03:05:56.044Z,6.53
2023-05-11T03:08:23.866Z,6.70
2023-05-11T03:10:53.079Z,7.17
2023-05-11T03:13:22.904Z,6.50
2023-05-11T03:15:52.456Z,7.20
2023-05-11T03:18:21.753Z,6.87
2023-05-11T03:20:51.883Z,7.10
2023-05-11T03:23:20.566Z,7.10
2023-05-11T03:25:48.738Z,7.47
2023-05-11T03:28:17.827Z,6.80
2023-05-11T03:30:47.182Z,7.03
2023-05-11T03:33:15.128Z,7.00
2023-05-11T03:35:44.399Z,6.63
2023-05-11T03:38:16.030Z,7.07
2023-05-11T03:40:45.538Z,7.03
2023-05-11T03:43:17.582Z,6.97
2023-05-11T03:45:46.794Z,7.23
2023-05-11T03:48:16.849Z,7.03
2023-05-11T03:50:45.516Z,7.37
2023-05-11T03:53:15.537Z,7.30
2023-05-11T03:55:43.576Z,7.20
2023-05-11T03:58:12.177Z,7.50
2023-05-11T04:00:40.349Z,7.00
2023-05-11T04:03:09.053Z,7.10
2023-05-11T04:05:37.065Z,6.20
2023-05-11T04:08:05.970Z,6.70
2023-05-11T04:10:35.163Z,7.17
2023-05-11T04:13:02.997Z,7.07
2023-05-11T04:15:31.328Z,7.10
2023-05-11T04:17:59.133Z,7.03
2023-05-11T04:20:27.115Z,6.37
2023-05-11T04:22:54.828Z,6.40
2023-05-11T04:25:22.652Z,6.23
2023-05-11T04:27:51.793Z,6.97
2023-05-11T04:30:20.703Z,6.53
2023-05-11T04:32:48.783Z,6.20
2023-05-11T04:35:16.548Z,7.00
2023-05-11T04:37:44.315Z,6.03
2023-05-11T04:40:13.083Z,6.30
2023-05-11T04:42:40.876Z,5.87
2023-05-11T04:45:11.172Z,6.13
2023-05-11T04:47:39.025Z,6.27
2023-05-11T04:50:07.933Z,6.73
2023-05-11T04:52:35.632Z,6.17
2023-05-11T04:55:03.460Z,6.77
2023-05-11T04:57:31.180Z,6.87
2023-05-11T04:59:59.010Z,7.40
2023-05-11T05:02:28.173Z,7.30
2023-05-11T05:04:56.047Z,7.40
2023-05-11T05:07:24.560Z,7.27
2023-05-11T05:09:52.243Z,6.87
2023-05-11T05:12:21.125Z,6.90
2023-05-11T05:14:48.831Z,7.20
2023-05-11T05:17:16.638Z,8.10
2023-05-11T05:19:45.862Z,7.23
2023-05-11T05:22:13.767Z,8.27
2023-05-11T05:24:41.563Z,7.80
2023-05-11T05:27:09.278Z,7.60
2023-05-11T05:29:37.002Z,6.73
2023-05-11T05:32:05.369Z,7.53
2023-05-11T05:34:33.133Z,7.13
2023-05-11T05:37:02.227Z,7.43
2023-05-11T05:39:29.999Z,7.47
2023-05-11T05:41:57.786Z,7.97
2023-05-11T05:44:25.639Z,7.80
2023-05-11T05:46:53.451Z,7.07
2023-05-11T05:49:21.210Z,7.47
2023-05-11T05:51:50.739Z,7.30
2023-05-11T05:54:19.885Z,7.40
2023-05-11T05:56:48.384Z,7.37
2023-05-11T05:59:16.090Z,7.50
2023-05-11T06:01:46.511Z,7.47
2023-05-11T06:04:14.422Z,7.13
2023-05-11T06:06:42.281Z,6.90
2023-05-11T06:09:10.116Z,8.20
2023-05-11T06:11:39.309Z,8.47
2023-05-11T06:14:07.178Z,8.90
2023-05-11T06:16:35.086Z,8.90
2023-05-11T06:19:03.011Z,9.10
2023-05-11T06:21:31.614Z,8.63
2023-05-11T06:23:59.335Z,9.13
2023-05-11T06:26:28.647Z,9.53
2023-05-11T06:28:57.876Z,9.07
2023-05-11T06:31:25.726Z,10.03
2023-05-11T06:33:53.651Z,9.13
2023-05-11T06:36:21.379Z,9.37
2023-05-11T06:38:49.164Z,9.57
2023-05-11T06:41:16.961Z,9.30
2023-05-11T06:43:44.816Z,9.67
2023-05-11T06:46:17.593Z,9.03
2023-05-11T06:48:47.819Z,9.23
2023-05-11T06:51:18.398Z,9.10
2023-05-11T06:53:46.360Z,9.53
2023-05-11T06:56:14.183Z,9.53
2023-05-11T06:58:41.942Z,9.87
2023-05-11T07:01:09.763Z,9.63
2023-05-11T07:03:38.912Z,8.37
2023-05-11T07:06:06.782Z,8.80
2023-05-11T07:08:34.911Z,9.60
2023-05-11T07:11:02.686Z,8.27
2023-05-11T07:13:30.992Z,9.13
2023-05-11T07:15:58.794Z,8.83
2023-05-11T07:18:26.710Z,8.27
2023-05-11T07:20:55.886Z,9.23
2023-05-11T07:23:24.454Z,9.53
2023-05-11T07:25:53.598Z,9.63
2023-05-11T07:28:21.595Z,10.00
2023-05-11T07:30:49.501Z,9.57
2023-05-11T07:33:17.264Z,9.30
2023-05-11T07:35:45.770Z,10.10
2023-05-11T07:38:15.017Z,10.80
2023-05-11T07:40:42.834Z,10.60
2023-05-11T07:43:10.610Z,10.20
2023-05-11T07:45:38.434Z,10.70
2023-05-11T07:48:06.393Z,11.60
2023-05-11T07:50:34.308Z,11.37
2023-05-11T07:53:02.156Z,12.80
2023-05-11T07:55:31.484Z,13.30
2023-05-11T07:57:59.187Z,10.27
2023-05-11T08:00:29.932Z,12.73
2023-05-11T08:02:57.926Z,12.13
2023-05-11T08:05:26.045Z,10.47
2023-05-11T08:07:53.856Z,10.90
2023-05-11T08:10:21.588Z,10.53
2023-05-11T08:12:50.727Z,11.13
2023-05-11T08:15:18.514Z,11.03
2023-05-11T08:17:48.378Z,10.67
2023-05-11T08:20:16.195Z,10.87
2023-05-11T08:22:44.069Z,9.40
2023-05-11T08:25:12.110Z,9.40
2023-05-11T08:27:40.096Z,8.17
2023-05-11T08:30:12.189Z,8.73
2023-05-11T08:35:11.337Z,8.97
2023-05-11T08:37:39.148Z,8.97
2023-05-11T08:40:08.276Z,7.90
2023-05-11T08:42:37.036Z,8.23
2023-05-11T08:45:06.855Z,7.97
2023-05-11T08:47:36.501Z,8.60
2023-05-11T08:50:04.502Z,7.47
2023-05-11T08:52:32.532Z,8.20
2023-05-11T08:55:00.229Z,7.53
2023-05-11T08:57:31.906Z,7.90
2023-05-11T09:00:01.964Z,7.67
2023-05-11T09:02:30.446Z,7.90
2023-05-11T09:05:03.097Z,8.30
2023-05-11T09:07:32.242Z,8.33
2023-05-11T09:10:00.369Z,8.10
2023-05-11T09:12:28.498Z,7.40
2023-05-11T09:15:01.859Z,7.70
2023-05-11T09:17:30.904Z,8.50
2023-05-11T09:20:01.675Z,7.97
2023-05-11T09:22:32.042Z,8.10
2023-05-11T09:25:01.758Z,7.00
2023-05-11T09:27:29.577Z,7.40
2023-05-11T09:29:57.395Z,7.03
2023-05-11T09:32:25.245Z,7.13
2023-05-11T09:34:53.088Z,7.03
2023-05-11T09:37:22.367Z,7.17
2023-05-11T09:40:25.200Z,6.13
2023-05-11T09:42:44.077Z,6.23
2023-05-11T09:45:12.122Z,5.43
2023-05-11T09:47:40.984Z,6.23
2023-05-11T09:50:18.615Z,5.60
2023-05-11T09:52:54.812Z,6.80
2023-05-11T09:55:22.579Z,7.30
2023-05-11T09:57:56.143Z,6.83
2023-05-11T10:00:25.327Z,6.90
2023-05-11T10:03:03.800Z,6.00
2023-05-11T10:05:32.808Z,6.20
2023-05-11T10:08:03.946Z,5.13
2023-05-11T10:10:33.104Z,4.87
2023-05-11T10:13:02.556Z,4.63
2023-05-11T10:15:31.973Z,4.70
2023-05-11T10:18:01.386Z,4.70
2023-05-11T10:20:29.510Z,5.33
2023-05-11T10:22:57.388Z,4.70
2023-05-11T10:25:27.606Z,5.43
2023-05-11T10:27:56.200Z,5.97
2023-05-11T10:30:24.327Z,6.97
2023-05-11T10:32:53.700Z,7.40
2023-05-11T10:35:22.487Z,6.43
2023-05-11T10:37:51.434Z,6.37
2023-05-11T10:40:19.985Z,6.67
2023-05-11T10:43:16.360Z,6.37
2023-05-11T10:45:52.855Z,5.97
2023-05-11T10:48:49.086Z,5.07
2023-05-11T10:51:47.634Z,4.57
2023-05-11T10:54:34.768Z,5.20
2023-05-11T10:57:13.223Z,4.77
2023-05-11T11:00:20.765Z,6.03
2023-05-11T11:02:49.473Z,5.60
2023-05-11T11:05:34.057Z,5.30
2023-05-11T11:08:04.466Z,5.37
2023-05-11T11:10:34.021Z,4.90
2023-05-11T11:13:06.469Z,4.70
2023-05-11T11:16:13.794Z,5.63
2023-05-11T11:18:44.896Z,4.60
2023-05-11T11:21:15.845Z,4.90
2023-05-11T11:23:53.192Z,4.00
2023-05-11T11:26:47.736Z,3.93
2023-05-11T11:29:15.538Z,3.07
2023-05-11T11:31:43.700Z,3.13
2023-05-11T11:34:36.366Z,3.30
2023-05-11T11:37:05.336Z,2.50
2023-05-11T11:40:00.326Z,2.47
2023-05-11T11:42:39.702Z,3.40
2023-05-11T11:45:30.047Z,3.10
2023-05-11T11:48:15.012Z,3.27
2023-05-11T11:50:46.282Z,3.40
2023-05-11T11:53:30.137Z,3.07
2023-05-11T11:55:58.155Z,3.27
2023-05-11T11:58:59.457Z,3.93
2023-05-11T12:01:28.672Z,3.80
2023-05-11T12:04:18.849Z,4.13
2023-05-11T12:06:57.830Z,5.00
2023-05-11T12:09:26.602Z,5.13
2023-05-11T12:11:54.722Z,5.20
2023-05-11T12:14:23.227Z,5.67
2023-05-11T12:17:08.312Z,5.17
2023-05-11T12:19:36.770Z,5.23
2023-05-11T12:22:06.064Z,5.23
2023-05-11T12:24:34.322Z,5.53
2023-05-11T12:27:04.926Z,4.63
2023-05-11T12:29:33.213Z,5.00
2023-05-11T12:32:01.927Z,4.63
2023-05-11T12:34:29.805Z,4.50
2023-05-11T12:37:00.594Z,4.73
2023-05-11T12:39:30.382Z,5.00
2023-05-11T12:41:58.535Z,4.77
2023-05-11T12:44:27.652Z,3.90
2023-05-11T12:46:55.901Z,4.37
2023-05-11T12:49:27.206Z,3.97
2023-05-11T12:52:03.987Z,4.30
2023-05-11T12:54:35.077Z,3.80
2023-05-11T12:57:04.089Z,2.93
2023-05-11T12:59:35.228Z,3.47
2023-05-11T13:02:21.681Z,3.20
2023-05-11T13:04:49.824Z,4.27
2023-05-11T13:07:26.982Z,3.93
2023-05-11T13:10:00.431Z,3.97
2023-05-11T13:12:32.279Z,4.50
2023-05-11T13:15:08.576Z,4.67
2023-05-11T13:17:37.784Z,5.30
2023-05-11T13:20:19.383Z,5.60
2023-05-11T13:22:47.829Z,5.07
2023-05-11T13:25:19.747Z,5.37
2023-05-11T13:27:48.338Z,5.20
2023-05-11T13:30:16.439Z,5.40
2023-05-11T13:32:44.290Z,5.33
2023-05-11T13:35:12.036Z,5.50
2023-05-11T13:37:39.923Z,5.67
2023-05-11T13:40:10.524Z,5.03
2023-05-11T13:42:39.891Z,4.70
2023-05-11T13:45:09.156Z,4.47
2023-05-11T13:47:37.339Z,4.27
2023-05-11T13:50:05.788Z,4.67
2023-05-11T13:52:33.556Z,5.00
2023-05-11T13:55:01.267Z,5.00
2023-05-11T13:57:29.121Z,4.80
2023-05-11T13:59:58.244Z,4.20
2023-05-11T14:02:26.142Z,3.87
2023-05-11T14:04:53.928Z,4.77
2023-05-11T14:07:23.907Z,5.37
2023-05-11T14:09:55.183Z,5.03
2023-05-11T14:12:22.985Z,5.20
2023-05-11T14:14:50.686Z,4.60
2023-05-11T14:17:19.907Z,4.60
2023-05-11T14:19:48.157Z,4.50
2023-05-11T14:22:15.970Z,4.80
2023-05-11T14:24:43.710Z,4.37
2023-05-11T14:27:11.696Z,4.77
2023-05-11T14:29:42.552Z,4.87
2023-05-11T14:32:11.898Z,5.03
2023-05-11T14:34:42.799Z,5.50
2023-05-11T14:37:10.577Z,4.47
2023-05-11T14:39:38.344Z,4.70
2023-05-11T14:42:07.025Z,4.27
2023-05-11T14:44:34.749Z,5.07
2023-05-11T14:47:02.643Z,5.50
2023-05-11T14:49:30.372Z,5.30
2023-05-11T14:51:59.685Z,3.73
2023-05-11T14:54:27.715Z,3.30
2023-05-11T14:56:57.034Z,3.50
2023-05-11T14:59:26.059Z,3.93
2023-05-11T15:01:53.935Z,3.70
2023-05-11T15:04:22.333Z,4.80
2023-05-11T15:06:50.382Z,6.70
2023-05-11T15:09:20.180Z,7.20
2023-05-11T15:11:48.102Z,7.60
2023-05-11T15:14:15.906Z,6.80
2023-05-11T15:16:43.767Z,6.00
2023-05-11T15:19:11.621Z,4.77
2023-05-11T15:21:39.458Z,4.57
2023-05-11T15:24:10.014Z,4.30
2023-05-11T15:26:40.114Z,4.57
2023-05-11T15:29:07.866Z,4.63
2023-05-11T15:31:35.687Z,3.90
2023-05-11T15:34:03.553Z,3.93
2023-05-11T15:36:31.409Z,3.73
2023-05-11T15:38:59.461Z,3.23
2023-05-11T15:41:27.319Z,3.43
2023-05-11T15:43:56.385Z,3.57
2023-05-11T15:46:24.479Z,3.40
2023-05-11T15:48:52.762Z,2.47
2023-05-11T15:51:20.772Z,2.60
2023-05-11T15:53:48.706Z,2.57
2023-05-11T15:56:16.482Z,2.73
2023-05-11T15:58:44.331Z,2.80
2023-05-11T16:01:13.524Z,2.87
2023-05-11T16:03:41.319Z,2.47
2023-05-11T16:06:09.476Z,2.80
2023-05-11T16:08:37.566Z,2.60
2023-05-11T16:11:06.462Z,3.20
2023-05-11T16:13:34.320Z,2.43
2023-05-11T16:16:02.129Z,2.37
2023-05-11T16:18:31.429Z,2.07
2023-05-11T16:20:59.235Z,1.47
2023-05-11T16:23:27.054Z,1.57
2023-05-11T16:25:54.861Z,1.70
2023-05-11T16:28:22.540Z,1.73
2023-05-11T16:30:50.376Z,2.13
2023-05-11T16:33:18.737Z,1.93
2023-05-11T16:35:47.956Z,2.20
2023-05-11T16:38:18.952Z,2.30
2023-05-11T16:40:46.886Z,2.17
2023-05-11T16:43:14.990Z,1.97
2023-05-11T16:45:43.509Z,2.03
2023-05-11T16:48:11.358Z,2.00
2023-05-11T16:50:39.181Z,2.27
2023-05-11T16:53:08.813Z,2.60
2023-05-11T16:55:36.583Z,2.20
2023-05-11T16:58:04.293Z,2.30
2023-05-11T17:00:34.163Z,1.90
2023-05-11T17:03:02.282Z,2.30
2023-05-11T17:05:30.163Z,2.07
2023-05-11T17:07:58.061Z,2.40
2023-05-11T17:10:27.654Z,2.20
2023-05-11T17:12:57.277Z,2.50
2023-05-11T17:15:25.534Z,1.90
2023-05-11T17:17:53.403Z,1.90
2023-05-11T17:20:21.930Z,1.90
2023-05-11T17:22:50.329Z,1.80
2023-05-11T17:25:18.318Z,1.97
2023-05-11T17:27:47.553Z,1.80
2023-05-11T17:30:15.649Z,1.80
2023-05-11T17:32:44.011Z,1.47
2023-05-11T17:35:12.705Z,1.63
2023-05-11T17:37:40.639Z,1.37
2023-05-11T17:40:09.507Z,1.80
2023-05-11T17:42:37.370Z,1.57
2023-05-11T17:45:07.768Z,1.80
2023-05-11T17:47:35.560Z,1.47
2023-05-11T17:50:03.687Z,1.37
2023-05-11T17:52:31.396Z,1.80
2023-05-11T17:55:03.112Z,1.40
2023-05-11T17:57:32.371Z,1.50
2023-05-11T18:00:13.920Z,1.80
2023-05-11T18:02:44.889Z,1.60
2023-05-11T18:05:12.755Z,1.50
2023-05-11T18:07:40.956Z,1.60
2023-05-11T18:10:10.957Z,1.80
2023-05-11T18:12:38.825Z,1.50
2023-05-11T18:15:08.658Z,1.90
2023-05-11T18:17:36.515Z,2.17
2023-05-11T18:20:05.072Z,2.83
2023-05-11T18:22:34.079Z,3.20
2023-05-11T18:25:02.204Z,3.30
2023-05-11T18:27:33.864Z,3.63
2023-05-11T18:30:01.922Z,4.10
2023-05-11T18:32:31.159Z,4.03
2023-05-11T18:34:58.863Z,3.97
2023-05-11T18:37:26.567Z,3.47
2023-05-11T18:39:54.824Z,3.63
2023-05-11T18:42:22.568Z,3.83
2023-05-11T18:44:53.557Z,3.17
2023-05-11T18:47:23.103Z,3.87
2023-05-11T18:49:52.419Z,3.50
2023-05-11T18:52:20.206Z,3.60
2023-05-11T18:54:47.968Z,3.83
2023-05-11T18:57:18.769Z,3.67
2023-05-11T18:59:46.934Z,3.70
2023-05-11T19:02:14.848Z,3.90
2023-05-11T19:04:42.657Z,3.97
2023-05-11T19:07:11.865Z,3.80
2023-05-11T19:09:39.652Z,3.50
2023-05-11T19:12:08.229Z,4.20
2023-05-11T19:14:37.404Z,4.67
2023-05-11T19:17:05.646Z,4.07
2023-05-11T19:19:34.207Z,4.13
2023-05-11T19:22:02.072Z,4.30
2023-05-11T19:24:31.581Z,3.80
2023-05-11T19:27:06.691Z,4.27
2023-05-11T19:29:35.580Z,4.10
2023-05-11T19:32:03.474Z,3.97
2023-05-11T19:34:31.299Z,4.50
2023-05-11T19:36:59.096Z,4.07
2023-05-11T19:39:26.838Z,3.93
2023-05-11T19:41:56.100Z,3.70
2023-05-11T19:44:23.977Z,3.80
2023-05-11T19:46:51.843Z,3.70
2023-05-11T19:49:19.693Z,3.73
2023-05-11T19:51:47.520Z,3.97
2023-05-11T19:54:15.536Z,4.10
2023-05-11T19:56:43.208Z,4.13
2023-05-11T19:59:12.365Z,3.77
2023-05-11T20:01:40.281Z,3.50
2023-05-11T20:04:08.198Z,3.50
2023-05-11T20:06:36.053Z,3.90
2023-05-11T20:09:05.152Z,3.67
2023-05-11T20:11:33.117Z,3.80
2023-05-11T20:14:01.229Z,3.97
2023-05-11T20:16:31.468Z,3.90
2023-05-11T20:18:59.830Z,3.93
2023-05-11T20:21:32.955Z,3.53
2023-05-11T20:24:00.656Z,3.40
2023-05-11T20:26:28.493Z,4.10
2023-05-11T20:28:56.294Z,3.90
2023-05-11T20:31:24.099Z,4.10
2023-05-11T20:36:24.620Z,4.67
2023-05-11T20:38:53.676Z,4.70
2023-05-11T20:41:22.085Z,4.73
2023-05-11T20:43:50.617Z,5.13
2023-05-11T20:46:18.452Z,5.03
2023-05-11T20:48:51.409Z,4.90
2023-05-11T20:51:23.308Z,5.10
2023-05-11T20:53:51.569Z,5.13
2023-05-11T20:56:19.387Z,5.00
2023-05-11T20:58:47.466Z,5.07
2023-05-11T21:01:15.663Z,5.27
2023-05-11T21:03:43.512Z,4.87
2023-05-11T21:06:11.402Z,5.27
2023-05-11T21:08:40.530Z,5.67
2023-05-11T21:11:08.337Z,5.77
2023-05-11T21:13:36.216Z,5.57
2023-05-11T21:16:04.027Z,5.27
2023-05-11T21:18:34.313Z,5.90
2023-05-11T21:21:02.118Z,6.30
2023-05-11T21:23:30.366Z,6.10
2023-05-11T21:26:00.056Z,6.20
2023-05-11T21:28:28.447Z,6.30
2023-05-11T21:30:57.800Z,5.97
2023-05-11T21:33:25.592Z,5.97
2023-05-11T21:35:53.804Z,5.97
2023-05-11T21:38:21.777Z,6.50
2023-05-11T21:40:52.499Z,6.07
2023-05-11T21:43:22.043Z,6.50
2023-05-11T21:45:50.811Z,6.17
2023-05-11T21:48:18.668Z,6.17
2023-05-11T21:50:46.548Z,6.63
2023-05-11T21:53:14.292Z,6.60
2023-05-11T21:55:42.047Z,6.27
2023-05-11T21:58:09.862Z,6.30
2023-05-11T22:00:39.352Z,5.87
2023-05-11T22:03:07.361Z,6.40
2023-05-11T22:05:35.245Z,6.73
2023-05-11T22:08:10.857Z,6.17
2023-05-11T22:10:43.143Z,5.93
2023-05-11T22:13:11.032Z,6.10
2023-05-11T22:15:40.209Z,6.17
2023-05-11T22:18:08.020Z,5.70
2023-05-11T22:20:35.830Z,6.03
2023-05-11T22:23:03.597Z,5.43
2023-05-11T22:25:32.057Z,5.83
2023-05-11T22:28:00.140Z,6.63
2023-05-11T22:30:27.978Z,5.27
2023-05-11T22:32:57.231Z,5.90
2023-05-11T22:35:25.224Z,5.63
2023-05-11T22:37:53.184Z,5.73
2023-05-11T22:40:21.188Z,5.70
2023-05-11T22:42:49.130Z,5.47
2023-05-11T22:45:16.802Z,5.67
2023-05-11T22:47:44.554Z,5.57
2023-05-11T22:50:13.758Z,5.67
2023-05-11T22:52:41.513Z,6.07
2023-05-11T22:55:10.570Z,5.67
2023-05-11T22:57:38.356Z,5.17
2023-05-11T23:00:09.821Z,5.23
2023-05-11T23:02:37.983Z,5.00
2023-05-11T23:05:07.206Z,5.23
2023-05-11T23:07:36.422Z,4.87
2023-05-11T23:10:04.235Z,4.83
2023-05-11T23:12:32.114Z,4.20
2023-05-11T23:14:59.899Z,4.30
2023-05-11T23:17:27.723Z,4.50
2023-05-11T23:19:55.513Z,4.60
2023-05-11T23:22:23.201Z,4.73
2023-05-11T23:24:52.290Z,3.80
2023-05-11T23:27:20.042Z,4.20
2023-05-11T23:29:48.971Z,4.10
2023-05-11T23:32:17.015Z,4.03
2023-05-11T23:34:44.697Z,3.80
2023-05-11T23:37:12.386Z,4.13
2023-05-11T23:39:40.196Z,4.00
2023-05-11T23:42:09.846Z,3.83
2023-05-11T23:44:37.581Z,3.83
2023-05-11T23:47:06.038Z,4.10
2023-05-11T23:49:33.959Z,3.90
2023-05-11T23:52:01.845Z,3.90
2023-05-11T23:54:29.640Z,3.80
2023-05-11T23:56:57.359Z,4.10
2023-05-11T23:59:26.506Z,4.20
